Time;durP1;ratioP1;P1;durP2;ratioP2;P2;SDS_P1;SDS_P2;PMS_P1;PMS_P2;Temp;Humidity;BMP_temperature;BMP_pressure;BME280_temperature;BME280_humidity;BME280_pressure;Samples;Min_cycle;Max_cycle;Signal;HPM_P1;HPM_P2
2022/01/11 00:01:50;;;;;;;50.00;11.37;;;0.80;99.90;;;;;;5036464;28;20232;-45
2022/01/11 00:04:18;;;;;;;27.23;9.83;;;0.70;99.90;;;;;;5042354;28;20204;-47
2022/01/11 00:06:47;;;;;;;27.77;10.77;;;0.70;99.90;;;;;;5024291;28;20686;-47
2022/01/11 00:09:32;;;;;;;20.87;9.73;;;0.70;99.90;;;;;;5039230;28;20522;-47
2022/01/11 00:12:00;;;;;;;13.40;9.23;;;0.70;99.90;;;;;;5030445;28;20813;-48
2022/01/11 00:14:28;;;;;;;18.27;10.23;;;0.70;99.90;;;;;;5051371;28;20322;-48
2022/01/11 00:16:55;;;;;;;18.43;10.47;;;0.70;99.90;;;;;;5027640;28;21021;-48
2022/01/11 00:19:22;;;;;;;17.70;10.67;;;0.70;99.90;;;;;;5044274;28;20294;-48
2022/01/11 00:21:50;;;;;;;20.07;9.83;;;0.70;99.90;;;;;;5037854;28;20615;-48
2022/01/11 00:24:29;;;;;;;25.30;10.57;;;0.70;99.90;;;;;;5041632;28;20199;-48
2022/01/11 00:26:58;;;;;;;16.27;10.57;;;0.70;99.90;;;;;;5033112;28;20225;-47
2022/01/11 00:29:25;;;;;;;23.03;10.23;;;0.70;99.90;;;;;;5018544;28;20228;-47
2022/01/11 00:31:55;;;;;;;43.10;11.43;;;0.70;99.90;;;;;;5020223;28;20235;-48
2022/01/11 00:34:23;;;;;;;29.27;11.60;;;0.80;99.90;;;;;;5025065;28;20331;-48
2022/01/11 00:36:50;;;;;;;39.77;11.83;;;0.60;99.90;;;;;;5035102;28;20210;-48
2022/01/11 00:39:17;;;;;;;42.07;11.87;;;0.70;99.90;;;;;;5044595;28;20866;-49
2022/01/11 00:41:45;;;;;;;33.80;11.23;;;0.60;99.90;;;;;;5037650;28;20234;-49
2022/01/11 00:44:13;;;;;;;40.33;11.57;;;0.60;99.90;;;;;;5042425;28;20204;-47
2022/01/11 00:46:41;;;;;;;118.07;13.73;;;0.60;99.90;;;;;;5029099;28;20217;-48
2022/01/11 00:49:09;;;;;;;109.93;13.23;;;0.60;99.90;;;;;;5026790;28;20207;-48
2022/01/11 00:51:36;;;;;;;113.03;14.13;;;0.50;99.90;;;;;;5030815;28;20924;-48
2022/01/11 00:54:04;;;;;;;87.33;13.40;;;0.50;99.90;;;;;;5043399;28;20462;-47
2022/01/11 00:56:31;;;;;;;61.60;12.37;;;0.40;99.90;;;;;;5037263;28;20213;-48
2022/01/11 00:58:57;;;;;;;57.37;12.93;;;0.40;99.90;;;;;;5048205;28;20213;-48
2022/01/11 01:01:27;;;;;;;27.63;12.33;;;0.40;99.90;;;;;;5022007;28;20233;-48
2022/01/11 01:03:54;;;;;;;19.73;12.20;;;0.40;99.90;;;;;;5034490;28;20281;-48
2022/01/11 01:06:22;;;;;;;31.63;11.77;;;0.50;99.90;;;;;;5025217;28;20211;-48
2022/01/11 01:08:49;;;;;;;21.37;12.03;;;0.50;99.90;;;;;;5051060;28;20206;-49
2022/01/11 01:11:16;;;;;;;16.43;11.87;;;0.50;99.90;;;;;;5037777;28;20225;-48
2022/01/11 01:13:42;;;;;;;22.83;11.97;;;0.40;99.90;;;;;;5036911;28;20218;-48
2022/01/11 01:16:09;;;;;;;26.93;12.80;;;0.40;99.90;;;;;;5042051;28;20207;-47
2022/01/11 01:18:36;;;;;;;18.63;12.60;;;0.40;99.90;;;;;;5017677;28;21926;-48
2022/01/11 01:21:04;;;;;;;24.20;12.17;;;0.40;99.90;;;;;;5048359;28;20206;-46
2022/01/11 01:23:33;;;;;;;24.77;12.73;;;0.40;99.90;;;;;;5029682;28;23707;-45
2022/01/11 01:26:01;;;;;;;28.00;13.10;;;0.30;99.90;;;;;;5025017;28;20210;-45
2022/01/11 01:28:28;;;;;;;18.57;12.43;;;0.30;99.90;;;;;;5028128;28;20227;-49
2022/01/11 01:31:00;;;;;;;29.40;12.40;;;0.30;99.90;;;;;;5036261;28;20224;-50
2022/01/11 01:33:28;;;;;;;24.20;12.17;;;0.30;99.90;;;;;;5007209;28;20213;-50
2022/01/11 01:36:00;;;;;;;19.73;12.67;;;0.30;99.90;;;;;;5043336;28;20215;-50
2022/01/11 01:38:27;;;;;;;21.27;12.87;;;0.30;99.90;;;;;;5027520;28;21000;-50
2022/01/11 01:41:00;;;;;;;25.33;12.23;;;0.40;99.90;;;;;;5029059;28;20211;-51
2022/01/11 01:43:27;;;;;;;16.27;11.40;;;0.40;99.90;;;;;;5040748;28;20212;-50
2022/01/11 01:45:58;;;;;;;28.30;12.67;;;0.40;99.90;;;;;;5041364;28;20209;-51
2022/01/11 01:48:25;;;;;;;37.57;12.47;;;0.40;99.90;;;;;;5024108;28;20214;-51
2022/01/11 01:50:52;;;;;;;22.33;12.53;;;0.40;99.90;;;;;;5029610;28;20226;-51
2022/01/11 01:53:19;;;;;;;42.10;12.57;;;0.30;99.90;;;;;;5029427;28;20234;-51
2022/01/11 01:55:47;;;;;;;63.17;13.53;;;0.20;99.90;;;;;;5047260;28;20209;-50
2022/01/11 01:58:16;;;;;;;67.23;12.77;;;0.20;99.90;;;;;;5036671;28;20217;-51
2022/01/11 02:00:51;;;;;;;69.00;14.30;;;0.20;99.90;;;;;;5031545;28;20210;-50
2022/01/11 02:03:26;;;;;;;35.57;11.87;;;0.20;99.90;;;;;;5037235;28;21134;-50
2022/01/11 02:05:53;;;;;;;17.73;11.77;;;0.20;99.90;;;;;;5028577;28;20218;-50
2022/01/11 02:08:22;;;;;;;59.30;13.07;;;0.20;99.90;;;;;;5010561;28;20213;-50
2022/01/11 02:10:49;;;;;;;38.43;11.73;;;0.10;99.90;;;;;;5042655;28;20232;-50
2022/01/11 02:13:18;;;;;;;77.13;14.03;;;0.20;99.90;;;;;;5018956;28;20237;-51
2022/01/11 02:15:45;;;;;;;124.30;16.87;;;0.20;99.90;;;;;;5035450;28;20207;-50
2022/01/11 02:18:18;;;;;;;125.70;17.33;;;0.30;99.90;;;;;;5040987;28;20221;-51
2022/01/11 02:20:49;;;;;;;133.40;17.57;;;0.30;99.90;;;;;;5023946;28;20229;-51
2022/01/11 02:23:17;;;;;;;108.80;18.07;;;0.40;99.90;;;;;;5026055;28;20366;-50
2022/01/11 02:25:44;;;;;;;126.47;17.43;;;0.40;99.90;;;;;;5040546;28;20213;-50
2022/01/11 02:28:13;;;;;;;95.97;17.23;;;0.40;99.90;;;;;;5041704;28;20201;-50
2022/01/11 02:30:41;;;;;;;106.63;16.80;;;0.40;99.90;;;;;;5039461;28;20220;-49
2022/01/11 02:33:17;;;;;;;142.73;17.10;;;0.50;99.90;;;;;;5026229;28;20228;-51
2022/01/11 02:35:50;;;;;;;77.07;17.30;;;0.40;99.90;;;;;;5029439;28;20214;-51
2022/01/11 02:38:17;;;;;;;69.43;16.93;;;0.50;99.90;;;;;;5027359;28;20322;-50
2022/01/11 02:40:44;;;;;;;86.93;17.27;;;0.50;99.90;;;;;;5036741;28;20208;-51
2022/01/11 02:43:11;;;;;;;42.80;15.53;;;0.50;99.90;;;;;;5041473;28;20276;-50
2022/01/11 02:45:38;;;;;;;69.73;17.23;;;0.50;99.90;;;;;;5045528;28;20216;-51
2022/01/11 02:48:06;;;;;;;96.43;17.60;;;0.60;99.90;;;;;;5031698;28;20929;-50
2022/01/11 02:50:33;;;;;;;67.33;15.77;;;0.60;99.90;;;;;;5036785;28;20705;-51
2022/01/11 02:53:01;;;;;;;55.60;16.03;;;0.60;99.90;;;;;;5032065;28;20227;-51
2022/01/11 02:55:28;;;;;;;70.97;15.10;;;0.60;99.90;;;;;;5035608;28;20208;-51
2022/01/11 02:57:56;;;;;;;84.53;15.40;;;0.50;99.90;;;;;;5025109;28;20224;-51
2022/01/11 03:00:24;;;;;;;63.33;13.33;;;0.50;99.90;;;;;;5040127;28;20211;-51
2022/01/11 03:02:51;;;;;;;54.47;12.77;;;0.50;99.90;;;;;;5029666;28;20757;-51
2022/01/11 03:05:18;;;;;;;57.77;12.70;;;0.40;99.90;;;;;;5031805;28;21131;-52
2022/01/11 03:07:45;;;;;;;76.73;12.87;;;0.50;99.90;;;;;;5038766;28;20688;-51
2022/01/11 03:10:23;;;;;;;68.47;13.73;;;0.40;99.90;;;;;;5029022;28;20930;-50
2022/01/11 03:12:50;;;;;;;52.87;12.83;;;0.40;99.90;;;;;;5009479;28;20322;-51
2022/01/11 03:15:17;;;;;;;25.13;12.43;;;0.40;99.90;;;;;;5045141;28;20708;-50
2022/01/11 03:17:45;;;;;;;62.73;12.87;;;0.40;99.90;;;;;;5041026;28;20216;-50
2022/01/11 03:20:12;;;;;;;87.90;14.60;;;0.40;99.90;;;;;;5040443;28;20213;-51
2022/01/11 03:22:40;;;;;;;66.93;13.90;;;0.30;99.90;;;;;;5040496;28;20269;-45
2022/01/11 03:25:08;;;;;;;66.30;13.70;;;0.40;99.90;;;;;;5030382;28;21607;-45
2022/01/11 03:28:30;;;;;;;29.30;12.13;;;0.30;99.90;;;;;;5027024;28;20751;-45
2022/01/11 03:31:00;;;;;;;60.90;13.10;;;0.30;99.90;;;;;;5024803;28;20221;-45
2022/01/11 03:33:27;;;;;;;79.17;14.13;;;0.30;99.90;;;;;;5044487;28;20209;-49
2022/01/11 03:35:55;;;;;;;40.57;12.53;;;0.20;99.90;;;;;;5037966;28;20298;-45
2022/01/11 03:38:22;;;;;;;36.07;13.30;;;0.30;99.90;;;;;;5029383;28;20237;-45
2022/01/11 03:40:51;;;;;;;48.57;12.97;;;0.30;99.90;;;;;;5042356;28;20204;-45
2022/01/11 03:43:21;;;;;;;69.80;14.27;;;0.30;99.90;;;;;;5038429;28;20602;-45
2022/01/11 03:45:50;;;;;;;64.43;13.00;;;0.30;99.90;;;;;;5041031;28;20206;-45
2022/01/11 03:48:19;;;;;;;74.50;14.13;;;0.30;99.90;;;;;;5035740;28;20708;-45
2022/01/11 03:50:52;;;;;;;24.07;13.20;;;0.30;99.90;;;;;;5029578;28;20220;-45
2022/01/11 03:53:20;;;;;;;62.83;13.90;;;0.30;99.90;;;;;;5038981;28;20261;-45
2022/01/11 03:56:11;;;;;;;52.10;13.90;;;0.20;99.90;;;;;;5035916;28;20207;-45
2022/01/11 03:58:38;;;;;;;35.53;12.93;;;0.30;99.90;;;;;;5016853;28;20702;-45
2022/01/11 04:01:05;;;;;;;47.67;13.57;;;0.30;99.90;;;;;;5048248;28;20767;-45
2022/01/11 04:03:34;;;;;;;44.07;13.27;;;0.20;99.90;;;;;;5036993;28;20220;-45
2022/01/11 04:06:01;;;;;;;25.50;12.70;;;0.30;99.90;;;;;;5037580;28;20596;-45
2022/01/11 04:08:28;;;;;;;49.43;13.63;;;0.20;99.90;;;;;;5048760;28;20292;-45
2022/01/11 04:10:55;;;;;;;34.13;13.87;;;0.20;99.90;;;;;;5027180;28;20227;-46
2022/01/11 04:13:23;;;;;;;49.17;14.30;;;0.20;99.90;;;;;;5030357;28;20751;-45
2022/01/11 04:15:50;;;;;;;59.50;14.50;;;0.30;99.90;;;;;;5039057;28;20279;-45
2022/01/11 04:18:17;;;;;;;65.37;14.40;;;0.20;99.90;;;;;;5044448;28;20207;-45
2022/01/11 04:20:45;;;;;;;77.10;14.90;;;0.30;99.90;;;;;;5037744;28;20202;-45
2022/01/11 04:23:13;;;;;;;57.53;14.90;;;0.20;99.90;;;;;;5038960;28;20546;-45
2022/01/11 04:25:40;;;;;;;60.90;14.77;;;0.20;99.90;;;;;;5028878;28;20210;-45
2022/01/11 04:28:08;;;;;;;44.33;13.60;;;0.20;99.90;;;;;;5047887;28;20208;-45
2022/01/11 04:30:36;;;;;;;59.50;15.07;;;0.20;99.90;;;;;;5025287;28;20280;-45
2022/01/11 04:33:03;;;;;;;92.07;15.83;;;0.20;99.90;;;;;;5027680;28;20831;-45
2022/01/11 04:35:30;;;;;;;166.13;17.20;;;0.10;99.90;;;;;;5027012;28;20212;-46
2022/01/11 04:37:58;;;;;;;114.33;16.47;;;0.10;99.90;;;;;;5040579;28;20805;-45
2022/01/11 04:40:25;;;;;;;91.43;16.07;;;0.10;99.90;;;;;;5033521;28;20734;-46
2022/01/11 04:42:52;;;;;;;158.77;16.33;;;0.00;99.90;;;;;;5037951;28;20234;-45
2022/01/11 04:45:20;;;;;;;82.00;15.33;;;0.10;99.90;;;;;;5044431;28;20209;-45
2022/01/11 04:47:50;;;;;;;133.10;16.73;;;0.10;99.90;;;;;;5032532;28;20206;-46
2022/01/11 04:50:17;;;;;;;54.37;14.17;;;0.10;99.90;;;;;;5031808;28;20212;-45
2022/01/11 04:52:43;;;;;;;97.50;15.03;;;0.10;99.90;;;;;;5022749;28;20773;-45
2022/01/11 04:55:12;;;;;;;158.87;16.30;;;0.10;99.90;;;;;;5044706;28;20202;-46
2022/01/11 04:57:39;;;;;;;110.60;17.40;;;0.00;99.90;;;;;;5024670;28;20217;-45
2022/01/11 05:00:07;;;;;;;91.97;14.83;;;0.00;99.90;;;;;;5027013;28;20211;-45
2022/01/11 05:02:34;;;;;;;87.63;14.07;;;0.00;99.90;;;;;;5030692;28;20217;-45
2022/01/11 05:05:01;;;;;;;108.17;16.57;;;0.00;99.90;;;;;;5042499;28;20695;-45
2022/01/11 05:07:28;;;;;;;87.33;14.93;;;0.00;99.90;;;;;;5024092;28;20194;-45
2022/01/11 05:09:55;;;;;;;58.77;14.50;;;0.00;99.90;;;;;;5039600;28;20210;-45
2022/01/11 05:12:23;;;;;;;118.37;16.27;;;0.10;99.90;;;;;;5024204;28;20237;-45
2022/01/11 05:14:50;;;;;;;72.03;14.80;;;0.00;99.90;;;;;;5048966;28;20204;-45
2022/01/11 05:17:17;;;;;;;101.67;15.33;;;0.10;99.90;;;;;;5040672;28;20202;-45
2022/01/11 05:19:44;;;;;;;65.23;15.17;;;0.00;99.90;;;;;;5007879;28;20220;-45
2022/01/11 05:22:11;;;;;;;47.07;13.83;;;0.10;99.90;;;;;;5005486;28;20238;-45
2022/01/11 05:24:38;;;;;;;58.40;14.13;;;0.10;99.90;;;;;;5040448;28;20205;-45
2022/01/11 05:27:05;;;;;;;93.67;15.27;;;0.00;99.90;;;;;;5026962;28;20799;-45
2022/01/11 05:29:34;;;;;;;73.70;14.07;;;0.00;99.90;;;;;;5026721;28;20600;-45
2022/01/11 05:32:02;;;;;;;75.53;13.93;;;-0.10;99.90;;;;;;5006174;28;20587;-45
2022/01/11 05:34:29;;;;;;;60.33;14.23;;;-0.10;99.90;;;;;;5001888;28;20213;-45
2022/01/11 05:36:56;;;;;;;87.80;13.80;;;-0.10;99.90;;;;;;5015263;28;20212;-45
2022/01/11 05:39:23;;;;;;;63.43;14.63;;;-0.10;99.90;;;;;;5034421;28;20295;-45
2022/01/11 05:41:50;;;;;;;66.90;14.33;;;-0.10;99.90;;;;;;5033907;28;20225;-44
2022/01/11 05:44:17;;;;;;;80.23;14.80;;;-0.10;99.90;;;;;;5025244;28;20578;-44
2022/01/11 05:46:45;;;;;;;84.23;14.47;;;-0.10;99.90;;;;;;5018231;28;20426;-45
2022/01/11 05:49:12;;;;;;;66.37;15.50;;;-0.10;99.90;;;;;;5029395;28;20208;-45
2022/01/11 05:51:39;;;;;;;55.63;15.30;;;0.00;99.90;;;;;;5009438;28;20762;-45
2022/01/11 05:54:06;;;;;;;93.83;17.50;;;0.00;99.90;;;;;;5025119;28;20212;-45
2022/01/11 05:56:33;;;;;;;91.57;16.93;;;0.00;99.90;;;;;;5034240;28;20211;-45
2022/01/11 05:58:59;;;;;;;81.07;17.30;;;0.00;99.90;;;;;;5024952;28;20206;-45
2022/01/11 06:01:26;;;;;;;78.23;15.87;;;0.00;99.90;;;;;;5000087;28;21437;-46
2022/01/11 06:03:54;;;;;;;63.43;15.13;;;0.00;99.90;;;;;;5041999;28;20245;-45
2022/01/11 06:06:21;;;;;;;59.77;16.77;;;0.00;99.90;;;;;;5010871;28;20205;-45
2022/01/11 06:08:49;;;;;;;52.43;14.80;;;0.00;99.90;;;;;;4996121;28;20210;-45
2022/01/11 06:11:16;;;;;;;48.87;15.47;;;0.00;99.90;;;;;;5024921;28;20220;-45
2022/01/11 06:13:43;;;;;;;61.57;16.57;;;0.00;99.90;;;;;;4999902;28;20601;-46
2022/01/11 06:16:10;;;;;;;42.20;15.80;;;0.10;99.90;;;;;;5016816;28;20210;-45
2022/01/11 06:18:37;;;;;;;43.13;15.57;;;0.00;99.90;;;;;;5038991;28;20208;-45
2022/01/11 06:21:05;;;;;;;61.53;14.83;;;0.10;99.90;;;;;;5022090;28;20281;-45
2022/01/11 06:23:32;;;;;;;61.10;15.60;;;0.00;99.90;;;;;;5041495;28;20200;-46
2022/01/11 06:25:59;;;;;;;55.83;16.60;;;0.10;99.90;;;;;;5031646;28;20220;-45
2022/01/11 06:28:26;;;;;;;39.00;16.30;;;0.10;99.90;;;;;;5031519;28;20241;-45
2022/01/11 06:30:53;;;;;;;45.80;16.30;;;-0.10;99.90;;;;;;5024679;28;20211;-45
2022/01/11 06:33:21;;;;;;;48.53;16.30;;;0.10;99.90;;;;;;5043074;28;21405;-45
2022/01/11 06:35:47;;;;;;;69.70;17.90;;;0.10;99.90;;;;;;5039955;28;21051;-45
2022/01/11 06:38:16;;;;;;;41.43;16.57;;;0.10;99.90;;;;;;5039857;28;20204;-45
2022/01/11 06:40:43;;;;;;;77.03;17.80;;;0.20;99.90;;;;;;5030837;28;20219;-45
2022/01/11 06:43:10;;;;;;;55.80;17.13;;;0.10;99.90;;;;;;5012602;28;20240;-45
2022/01/11 06:45:37;;;;;;;77.23;17.50;;;0.20;99.90;;;;;;5047028;28;20212;-45
2022/01/11 06:48:05;;;;;;;49.50;19.03;;;0.20;99.90;;;;;;5044911;28;20212;-45
2022/01/11 06:50:32;;;;;;;55.67;18.60;;;0.30;99.90;;;;;;5041853;28;20203;-45
2022/01/11 06:53:00;;;;;;;33.30;17.83;;;0.20;99.90;;;;;;5024060;28;20232;-45
2022/01/11 06:55:28;;;;;;;41.40;17.93;;;0.30;99.90;;;;;;5026922;28;20207;-49
2022/01/11 06:57:55;;;;;;;37.33;16.97;;;0.30;99.90;;;;;;5030782;28;20781;-50
2022/01/11 07:00:22;;;;;;;49.10;18.47;;;0.40;99.90;;;;;;5009544;28;21733;-50
2022/01/11 07:02:50;;;;;;;42.60;18.20;;;0.40;99.90;;;;;;5036563;28;20220;-50
2022/01/11 07:05:17;;;;;;;45.20;18.77;;;0.40;99.90;;;;;;5045134;28;20652;-51
2022/01/11 07:07:44;;;;;;;38.40;19.03;;;0.50;99.90;;;;;;5025232;28;20212;-50
2022/01/11 07:10:11;;;;;;;48.53;17.23;;;0.50;99.90;;;;;;5053700;28;20216;-50
2022/01/11 07:12:40;;;;;;;46.50;19.20;;;0.50;99.90;;;;;;5027629;28;20990;-51
2022/01/11 07:15:07;;;;;;;57.87;25.50;;;0.60;99.90;;;;;;5035858;28;20688;-44
2022/01/11 07:17:34;;;;;;;55.57;24.57;;;0.60;99.90;;;;;;5041936;28;20225;-43
2022/01/11 07:20:01;;;;;;;49.57;21.37;;;0.50;99.90;;;;;;5046779;28;20311;-43
2022/01/11 07:22:28;;;;;;;41.90;19.87;;;0.60;99.90;;;;;;5017815;28;20221;-44
2022/01/11 07:24:55;;;;;;;49.37;19.70;;;0.50;99.90;;;;;;5018418;28;20208;-43
2022/01/11 07:27:22;;;;;;;49.23;18.57;;;0.60;99.90;;;;;;5040410;28;20219;-43
2022/01/11 07:29:51;;;;;;;52.70;18.07;;;0.50;99.90;;;;;;5021589;28;20432;-43
2022/01/11 07:32:18;;;;;;;35.33;17.37;;;0.50;99.90;;;;;;5042801;28;20287;-43
2022/01/11 07:34:45;;;;;;;54.00;17.60;;;0.50;99.90;;;;;;5041621;28;20702;-43
2022/01/11 07:37:12;;;;;;;46.90;17.33;;;0.50;99.90;;;;;;5041037;28;20650;-43
2022/01/11 07:39:39;;;;;;;40.50;17.00;;;0.50;99.90;;;;;;5026446;28;20606;-43
2022/01/11 07:42:06;;;;;;;51.37;18.63;;;0.50;99.90;;;;;;5034089;28;20226;-44
2022/01/11 07:44:32;;;;;;;45.23;18.43;;;0.50;99.90;;;;;;5025866;28;20243;-43
2022/01/11 07:47:02;;;;;;;60.93;17.77;;;0.50;99.90;;;;;;5042137;28;20209;-43
2022/01/11 07:49:29;;;;;;;58.93;18.70;;;0.50;99.90;;;;;;5036424;28;20205;-43
2022/01/11 07:51:56;;;;;;;64.80;19.33;;;0.50;99.90;;;;;;5053084;28;20234;-44
2022/01/11 07:54:23;;;;;;;50.93;17.43;;;0.50;99.90;;;;;;5028871;28;20676;-43
2022/01/11 07:56:50;;;;;;;41.80;18.07;;;0.50;99.90;;;;;;5014599;28;20301;-43
2022/01/11 07:59:17;;;;;;;40.70;18.10;;;0.60;99.90;;;;;;5044043;28;20213;-43
2022/01/11 08:01:44;;;;;;;42.50;19.90;;;0.60;99.90;;;;;;5023300;28;20707;-43
2022/01/11 08:04:12;;;;;;;56.57;18.83;;;0.60;99.90;;;;;;5029193;28;20872;-43
2022/01/11 08:06:39;;;;;;;44.40;19.63;;;0.60;99.90;;;;;;5045496;28;20527;-43
2022/01/11 08:09:07;;;;;;;54.70;19.63;;;0.70;99.90;;;;;;5036714;28;20423;-43
2022/01/11 08:11:34;;;;;;;58.23;19.60;;;0.70;99.90;;;;;;5029102;28;20437;-43
2022/01/11 08:14:01;;;;;;;61.07;19.60;;;0.70;99.90;;;;;;5015473;28;20534;-43
2022/01/11 08:16:28;;;;;;;44.67;20.70;;;0.70;99.90;;;;;;5031299;28;20539;-43
2022/01/11 08:18:55;;;;;;;55.23;19.67;;;0.80;99.90;;;;;;5041033;28;20202;-43
2022/01/11 08:21:23;;;;;;;44.27;19.80;;;0.80;99.90;;;;;;5036188;28;20269;-43
2022/01/11 08:23:50;;;;;;;38.80;19.90;;;0.70;99.90;;;;;;5045773;28;20209;-43
2022/01/11 08:26:17;;;;;;;38.83;19.87;;;0.80;99.90;;;;;;5028519;28;20213;-43
2022/01/11 08:28:44;;;;;;;50.03;20.60;;;0.80;99.90;;;;;;5039255;28;20858;-43
2022/01/11 08:31:11;;;;;;;47.90;18.97;;;0.80;99.90;;;;;;5037460;28;20501;-43
2022/01/11 08:33:39;;;;;;;43.57;19.33;;;0.90;99.90;;;;;;5032048;28;20422;-43
2022/01/11 08:36:06;;;;;;;42.97;18.43;;;0.90;99.90;;;;;;5045669;28;20267;-43
2022/01/11 08:38:35;;;;;;;46.00;21.10;;;0.90;99.90;;;;;;5044838;28;20219;-43
2022/01/11 08:41:02;;;;;;;36.57;19.33;;;0.90;99.90;;;;;;5030099;28;20211;-44
2022/01/11 08:43:29;;;;;;;37.73;18.67;;;0.90;99.90;;;;;;5039734;28;20218;-43
2022/01/11 08:45:56;;;;;;;41.57;19.87;;;0.90;99.90;;;;;;5045270;28;20229;-43
2022/01/11 08:48:23;;;;;;;42.93;21.17;;;0.90;99.90;;;;;;5037350;28;20329;-43
2022/01/11 08:50:53;;;;;;;42.63;18.73;;;0.90;99.90;;;;;;5053760;28;20674;-43
2022/01/11 08:53:20;;;;;;;37.27;18.77;;;1.00;99.90;;;;;;5038333;28;20688;-47
2022/01/11 08:55:48;;;;;;;39.20;18.83;;;0.90;99.90;;;;;;5018808;28;20966;-48
2022/01/11 08:58:15;;;;;;;39.27;18.87;;;0.90;99.90;;;;;;5036832;28;20212;-47
2022/01/11 09:00:42;;;;;;;34.80;17.37;;;0.90;99.90;;;;;;5023235;28;20417;-47
2022/01/11 09:03:09;;;;;;;38.27;18.50;;;0.90;99.90;;;;;;5035627;28;20223;-47
2022/01/11 09:05:36;;;;;;;36.80;18.97;;;0.90;99.90;;;;;;5051769;28;20507;-47
2022/01/11 09:08:04;;;;;;;40.00;18.90;;;1.00;99.90;;;;;;5058046;28;20587;-48
2022/01/11 09:10:31;;;;;;;35.33;18.70;;;0.90;99.90;;;;;;5036702;28;20678;-48
2022/01/11 09:12:59;;;;;;;36.27;18.63;;;1.00;99.90;;;;;;5039874;28;20232;-48
2022/01/11 09:15:27;;;;;;;37.33;17.17;;;1.00;99.90;;;;;;5033876;28;20209;-48
2022/01/11 09:17:55;;;;;;;39.33;18.63;;;0.90;99.90;;;;;;5030055;28;20797;-47
2022/01/11 09:20:22;;;;;;;39.17;18.23;;;1.00;99.90;;;;;;5050158;28;20213;-47
2022/01/11 09:22:48;;;;;;;36.13;17.43;;;1.00;99.90;;;;;;5052651;28;20311;-47
2022/01/11 09:25:16;;;;;;;32.33;17.20;;;1.00;99.90;;;;;;5052062;28;20210;-47
2022/01/11 09:27:43;;;;;;;31.40;16.13;;;1.00;99.90;;;;;;5023436;28;20267;-47
2022/01/11 09:30:13;;;;;;;30.23;16.07;;;1.00;99.90;;;;;;5037692;28;20208;-47
2022/01/11 09:32:42;;;;;;;34.03;17.00;;;1.00;99.90;;;;;;5029941;28;20374;-47
2022/01/11 09:35:11;;;;;;;30.23;17.37;;;1.00;99.90;;;;;;5019290;28;20216;-48
2022/01/11 09:37:38;;;;;;;30.37;15.50;;;1.00;99.90;;;;;;5031665;28;20255;-43
2022/01/11 09:40:08;;;;;;;30.87;15.83;;;1.00;99.90;;;;;;5044654;28;20217;-43
2022/01/11 09:42:36;;;;;;;31.83;15.77;;;1.00;99.90;;;;;;5038423;28;20857;-49
2022/01/11 09:45:04;;;;;;;29.17;16.03;;;1.00;99.90;;;;;;5041174;28;20205;-50
2022/01/11 09:47:32;;;;;;;38.30;17.07;;;1.00;99.90;;;;;;5026778;28;20216;-49
2022/01/11 09:49:59;;;;;;;27.47;16.87;;;1.10;99.90;;;;;;5028684;28;20212;-49
2022/01/11 09:52:28;;;;;;;29.17;16.60;;;1.10;99.90;;;;;;5049137;28;20225;-50
2022/01/11 09:54:55;;;;;;;27.47;15.50;;;1.10;99.90;;;;;;5048535;28;20235;-50
2022/01/11 09:57:23;;;;;;;30.40;16.43;;;1.20;99.90;;;;;;5037442;28;21519;-50
2022/01/11 09:59:50;;;;;;;30.47;16.23;;;1.20;99.90;;;;;;5032201;28;20201;-49
2022/01/11 10:02:18;;;;;;;25.10;14.60;;;1.20;99.90;;;;;;5038455;28;20252;-50
2022/01/11 10:04:46;;;;;;;27.53;15.40;;;1.30;99.90;;;;;;5014104;28;20213;-50
2022/01/11 10:07:14;;;;;;;34.10;16.23;;;1.30;99.90;;;;;;5025226;28;20232;-50
2022/01/11 10:09:47;;;;;;;27.20;15.00;;;1.30;99.90;;;;;;5034958;28;20907;-50
2022/01/11 10:12:15;;;;;;;24.20;14.40;;;1.30;99.90;;;;;;5042268;28;20224;-49
2022/01/11 10:14:48;;;;;;;23.90;13.70;;;1.30;99.90;;;;;;5028776;28;20209;-50
2022/01/11 10:17:18;;;;;;;24.77;15.33;;;1.30;99.90;;;;;;5039356;28;20209;-49
2022/01/11 10:19:48;;;;;;;21.53;13.10;;;1.30;99.90;;;;;;5015291;28;20632;-50
2022/01/11 10:22:18;;;;;;;25.30;14.07;;;1.40;99.90;;;;;;5046801;28;20593;-50
2022/01/11 10:24:47;;;;;;;24.83;14.20;;;1.40;99.90;;;;;;5047544;28;20197;-47
2022/01/11 10:27:17;;;;;;;25.47;13.50;;;1.40;99.90;;;;;;5040579;28;20591;-47
2022/01/11 10:29:46;;;;;;;19.93;12.67;;;1.40;99.90;;;;;;5030282;28;20240;-47
2022/01/11 10:32:20;;;;;;;22.47;13.60;;;1.40;99.90;;;;;;5031385;28;20800;-47
2022/01/11 10:34:50;;;;;;;25.30;13.27;;;1.50;99.90;;;;;;5027641;28;20884;-47
2022/01/11 10:37:27;;;;;;;26.87;14.50;;;1.50;99.90;;;;;;5027642;28;20472;-47
2022/01/11 10:40:08;;;;;;;24.47;13.53;;;1.50;99.90;;;;;;5046006;28;20212;-48
2022/01/11 10:42:38;;;;;;;29.83;13.33;;;1.60;99.90;;;;;;5041027;28;20226;-48
2022/01/11 10:45:07;;;;;;;24.03;13.43;;;1.50;99.90;;;;;;5023655;28;20964;-48
2022/01/11 10:47:36;;;;;;;21.03;13.30;;;1.60;99.90;;;;;;5012437;28;20602;-47
2022/01/11 10:50:08;;;;;;;21.47;12.93;;;1.60;99.90;;;;;;5010190;28;20233;-48
2022/01/11 10:52:35;;;;;;;28.30;13.90;;;1.60;99.90;;;;;;5020563;28;20232;-47
2022/01/11 10:55:04;;;;;;;19.97;13.17;;;1.70;99.90;;;;;;5035625;28;20537;-47
2022/01/11 10:57:32;;;;;;;23.67;13.37;;;1.80;99.90;;;;;;5024957;28;20689;-47
2022/01/11 11:00:28;;;;;;;23.60;12.70;;;1.80;99.90;;;;;;5041005;28;20214;-48
2022/01/11 11:03:04;;;;;;;21.23;12.00;;;1.80;99.90;;;;;;5007702;28;20492;-48
2022/01/11 11:05:36;;;;;;;22.10;12.60;;;1.90;99.90;;;;;;5002170;28;20216;-47
2022/01/11 11:08:11;;;;;;;21.37;12.53;;;1.90;99.90;;;;;;5026213;28;20207;-48
2022/01/11 11:10:45;;;;;;;21.47;12.07;;;2.00;99.90;;;;;;5026681;28;20208;-48
2022/01/11 11:13:23;;;;;;;23.03;11.53;;;2.00;99.90;;;;;;5043148;28;20232;-45
2022/01/11 11:15:51;;;;;;;25.80;12.17;;;2.10;99.90;;;;;;5028261;28;20493;-45
2022/01/11 11:18:24;;;;;;;26.37;12.83;;;2.10;99.90;;;;;;5020859;28;20228;-45
2022/01/11 11:20:53;;;;;;;15.07;11.00;;;2.10;99.90;;;;;;5025442;28;20212;-45
2022/01/11 11:23:20;;;;;;;19.30;11.47;;;2.10;99.90;;;;;;5023947;28;20225;-45
2022/01/11 11:25:47;;;;;;;20.40;12.10;;;2.20;99.90;;;;;;5021053;28;20222;-45
2022/01/11 11:28:15;;;;;;;21.47;11.13;;;2.20;99.90;;;;;;5030923;28;20221;-46
2022/01/11 11:30:48;;;;;;;16.90;11.73;;;2.20;99.90;;;;;;5049183;28;20268;-45
2022/01/11 11:33:18;;;;;;;21.97;11.30;;;2.20;99.90;;;;;;5006999;28;20238;-46
2022/01/11 11:35:46;;;;;;;21.43;11.93;;;2.20;99.90;;;;;;5043656;28;20199;-45
2022/01/11 11:38:14;;;;;;;17.57;10.83;;;2.20;99.90;;;;;;5015702;28;20561;-45
2022/01/11 11:40:42;;;;;;;21.43;11.90;;;2.20;99.90;;;;;;5020162;28;20222;-46
2022/01/11 11:43:12;;;;;;;22.00;11.40;;;2.30;99.90;;;;;;5025396;28;20231;-45
2022/01/11 11:45:41;;;;;;;20.97;11.73;;;2.30;99.90;;;;;;5039952;28;20213;-45
2022/01/11 11:48:10;;;;;;;18.10;11.07;;;2.40;99.90;;;;;;5020924;28;20214;-46
2022/01/11 11:50:49;;;;;;;22.77;12.13;;;2.50;99.90;;;;;;5033020;28;21032;-46
2022/01/11 11:53:27;;;;;;;22.53;12.13;;;2.40;99.90;;;;;;5021324;28;20242;-46
2022/01/11 11:56:16;;;;;;;24.50;12.50;;;2.50;99.90;;;;;;5028115;28;20210;-46
2022/01/11 11:58:45;;;;;;;17.53;11.20;;;2.60;99.90;;;;;;5036106;28;20916;-45
2022/01/11 12:01:44;;;;;;;21.87;12.20;;;2.60;99.90;;;;;;5025309;28;20219;-46
2022/01/11 12:04:13;;;;;;;17.30;11.00;;;2.70;99.90;;;;;;5019447;28;20293;-46
2022/01/11 12:06:41;;;;;;;23.17;12.93;;;2.70;99.90;;;;;;5035718;28;20220;-45
2022/01/11 12:09:11;;;;;;;18.83;11.27;;;2.60;99.90;;;;;;5028684;28;21164;-45
2022/01/11 12:11:42;;;;;;;21.33;12.50;;;2.70;99.90;;;;;;5034719;28;20279;-45
2022/01/11 12:14:28;;;;;;;23.90;12.27;;;2.60;99.90;;;;;;5019111;28;20724;-45
2022/01/11 12:16:55;;;;;;;20.03;10.77;;;2.70;99.90;;;;;;5043874;28;20322;-46
2022/01/11 12:19:43;;;;;;;24.40;12.17;;;2.60;99.90;;;;;;5014354;28;20219;-45
2022/01/11 12:22:33;;;;;;;17.97;11.73;;;2.60;99.90;;;;;;5023529;28;20231;-45
2022/01/11 12:25:03;;;;;;;20.10;11.80;;;2.60;99.90;;;;;;5029097;28;20257;-45
2022/01/11 12:27:30;;;;;;;16.87;10.80;;;2.60;99.90;;;;;;5032812;28;20211;-45
2022/01/11 12:30:01;;;;;;;16.80;10.97;;;2.50;99.90;;;;;;5034815;28;20207;-45
2022/01/11 12:32:29;;;;;;;21.20;11.10;;;2.50;99.90;;;;;;5036098;28;20231;-46
2022/01/11 12:35:05;;;;;;;20.40;11.07;;;2.50;99.90;;;;;;5023074;28;20710;-45
2022/01/11 12:37:38;;;;;;;22.47;11.07;;;2.50;99.90;;;;;;5032640;28;20211;-46
2022/01/11 12:40:13;;;;;;;18.57;11.03;;;2.50;99.90;;;;;;5006586;28;20867;-46
2022/01/11 12:42:53;;;;;;;18.97;11.30;;;2.50;99.90;;;;;;5030774;28;20305;-45
2022/01/11 12:45:58;;;;;;;21.70;12.10;;;2.50;99.90;;;;;;5027131;28;20877;-45